Time;durP1;ratioP1;P1;durP2;ratioP2;P2;SDS_P1;SDS_P2;PMS_P1;PMS_P2;Temp;Humidity;BMP_temperature;BMP_pressure;BME280_temperature;BME280_humidity;BME280_pressure;Samples;Min_cycle;Max_cycle;Signal;HPM_P1;HPM_P2
2023/08/28 00:00:03;;;;;;;29.42;17.90;;;;;;;;;;8330649;28;20049;-90
2023/08/28 00:04:06;;;;;;;24.77;15.07;;;;;;;;;;8330118;28;20103;-89
2023/08/28 00:08:10;;;;;;;21.98;14.82;;;;;;;;;;8314234;28;20572;-89
2023/08/28 00:12:12;;;;;;;22.05;14.98;;;;;;;;;;8306474;28;20046;-89
2023/08/28 00:16:16;;;;;;;19.30;14.15;;;;;;;;;;8315800;28;20049;-89
2023/08/28 00:20:20;;;;;;;19.52;14.00;;;;;;;;;;8314158;28;20550;-89
2023/08/28 00:37:54;;;;;;;30.33;21.33;;;;;;;;;;8327684;27;1934657;-93
2023/08/28 00:41:57;;;;;;;38.55;24.05;;;;;;;;;;8356138;28;20074;-90
2023/08/28 00:46:02;;;;;;;34.35;20.65;;;;;;;;;;8378956;28;20381;-91
2023/08/28 00:50:06;;;;;;;36.05;22.45;;;;;;;;;;8386251;28;20044;-89
2023/08/28 00:54:10;;;;;;;28.88;18.55;;;;;;;;;;8378420;28;20036;-88
2023/08/28 00:58:13;;;;;;;26.80;16.70;;;;;;;;;;8372779;28;20047;-89
2023/08/28 01:02:16;;;;;;;25.38;14.68;;;;;;;;;;8380269;28;20065;-88
2023/08/28 01:06:26;;;;;;;22.48;14.02;;;;;;;;;;8358668;28;20132;-90
2023/08/28 01:10:38;;;;;;;23.00;14.63;;;;;;;;;;8365451;28;20392;-88
2023/08/28 01:14:51;;;;;;;33.60;15.50;;;;;;;;;;8379242;28;20097;-88
2023/08/28 01:18:54;;;;;;;34.13;17.95;;;;;;;;;;8385498;28;20071;-88
2023/08/28 01:23:06;;;;;;;32.13;16.38;;;;;;;;;;8371749;28;20052;-87
2023/08/28 01:27:11;;;;;;;32.17;15.75;;;;;;;;;;8371943;28;20551;-88
2023/08/28 01:31:14;;;;;;;31.23;12.98;;;;;;;;;;8358818;28;20105;-94
2023/08/28 01:35:19;;;;;;;24.67;12.63;;;;;;;;;;8357308;28;20437;-89
2023/08/28 01:39:27;;;;;;;25.77;10.48;;;;;;;;;;8341579;28;20443;-90
2023/08/28 01:43:35;;;;;;;18.75;9.27;;;;;;;;;;8351693;28;20132;-88
2023/08/28 01:47:38;;;;;;;19.65;9.60;;;;;;;;;;8360183;28;20045;-89
2023/08/28 01:51:41;;;;;;;12.27;7.40;;;;;;;;;;8348932;28;20397;-90
2023/08/28 01:56:24;;;;;;;10.48;6.85;;;;;;;;;;8342213;28;20131;-89
2023/08/28 02:00:28;;;;;;;10.85;6.90;;;;;;;;;;8358483;28;20045;-88
2023/08/28 02:04:31;;;;;;;14.30;7.07;;;;;;;;;;8337969;28;20484;-89
2023/08/28 02:08:34;;;;;;;14.25;7.18;;;;;;;;;;8355360;28;20045;-88
2023/08/28 02:12:36;;;;;;;16.50;8.25;;;;;;;;;;8361548;28;20411;-89
2023/08/28 02:16:40;;;;;;;21.42;9.68;;;;;;;;;;8360529;28;20480;-90
2023/08/28 02:20:44;;;;;;;22.23;9.80;;;;;;;;;;8361031;28;20546;-90
2023/08/28 02:24:47;;;;;;;23.60;10.00;;;;;;;;;;8360886;28;20090;-89
2023/08/28 02:28:50;;;;;;;15.43;7.90;;;;;;;;;;8349823;28;20523;-89
2023/08/28 02:32:54;;;;;;;13.20;6.30;;;;;;;;;;8353951;28;20480;-88
2023/08/28 02:36:57;;;;;;;11.18;5.30;;;;;;;;;;8337844;28;20055;-90
2023/08/28 02:41:04;;;;;;;10.25;5.45;;;;;;;;;;8343477;28;20381;-90
2023/08/28 02:45:07;;;;;;;16.42;6.47;;;;;;;;;;8327885;28;20468;-88
2023/08/28 02:49:12;;;;;;;18.55;6.82;;;;;;;;;;8343571;28;20047;-94
2023/08/28 02:53:15;;;;;;;16.23;5.90;;;;;;;;;;8349091;28;20137;-90
2023/08/28 02:57:17;;;;;;;14.82;6.07;;;;;;;;;;8331552;28;20093;-90
2023/08/28 03:01:21;;;;;;;9.90;5.45;;;;;;;;;;8342189;28;20055;-90
2023/08/28 03:05:25;;;;;;;10.68;5.43;;;;;;;;;;8359245;28;20041;-90
2023/08/28 03:09:29;;;;;;;8.20;4.82;;;;;;;;;;8347980;28;20053;-88
2023/08/28 03:13:32;;;;;;;7.47;4.38;;;;;;;;;;8349946;28;20094;-89
2023/08/28 03:17:34;;;;;;;7.78;5.47;;;;;;;;;;8337749;28;20052;-88
2023/08/28 03:21:39;;;;;;;8.27;4.35;;;;;;;;;;8346225;28;20052;-88
2023/08/28 03:25:42;;;;;;;7.65;4.47;;;;;;;;;;8352752;28;20468;-88
2023/08/28 03:29:45;;;;;;;9.43;5.00;;;;;;;;;;8326433;28;20389;-89
2023/08/28 03:33:47;;;;;;;10.60;5.13;;;;;;;;;;8339293;28;20374;-88
2023/08/28 03:37:52;;;;;;;9.45;6.05;;;;;;;;;;8345013;28;20152;-88
2023/08/28 03:41:55;;;;;;;15.80;6.03;;;;;;;;;;8339071;28;20496;-88
2023/08/28 03:45:57;;;;;;;11.45;6.43;;;;;;;;;;8337690;28;20041;-89
2023/08/28 03:50:00;;;;;;;11.98;6.55;;;;;;;;;;8347445;28;20049;-93
2023/08/28 03:54:12;;;;;;;14.93;7.53;;;;;;;;;;8354741;28;20048;-92
2023/08/28 04:03:08;;;;;;;12.50;8.43;;;;;;;;;;8325500;28;19924;-88
2023/08/28 04:07:22;;;;;;;15.40;8.23;;;;;;;;;;8336653;28;20053;-90
2023/08/28 04:11:27;;;;;;;16.60;8.63;;;;;;;;;;8339475;28;20049;-89
2023/08/28 04:15:30;;;;;;;16.48;8.57;;;;;;;;;;8342981;28;20059;-89
2023/08/28 04:19:35;;;;;;;14.27;8.27;;;;;;;;;;8341645;28;20041;-89
2023/08/28 04:23:38;;;;;;;12.32;8.05;;;;;;;;;;8344246;28;20096;-87
2023/08/28 04:27:43;;;;;;;13.55;7.45;;;;;;;;;;8358123;28;20053;-88
2023/08/28 04:31:46;;;;;;;11.43;6.25;;;;;;;;;;8343034;28;20125;-88
2023/08/28 04:35:48;;;;;;;15.00;6.55;;;;;;;;;;8324815;28;20060;-88
2023/08/28 04:39:51;;;;;;;7.00;4.47;;;;;;;;;;8338289;28;20053;-88
2023/08/28 04:43:56;;;;;;;7.70;4.30;;;;;;;;;;8330136;28;20049;-89
2023/08/28 04:47:59;;;;;;;5.97;4.10;;;;;;;;;;8335491;28;20124;-89
2023/08/28 04:52:01;;;;;;;6.30;4.43;;;;;;;;;;8348714;28;20124;-91
2023/08/28 04:56:04;;;;;;;5.57;4.13;;;;;;;;;;8357915;28;20518;-88
2023/08/28 05:00:10;;;;;;;7.30;3.97;;;;;;;;;;8345393;28;20124;-92
2023/08/28 05:04:13;;;;;;;5.35;4.10;;;;;;;;;;8344109;28;20055;-91
2023/08/28 05:08:16;;;;;;;6.60;4.10;;;;;;;;;;8331990;28;20041;-92
2023/08/28 05:12:19;;;;;;;7.80;4.90;;;;;;;;;;8355836;28;20125;-91
2023/08/28 05:16:24;;;;;;;8.25;5.43;;;;;;;;;;8326092;28;20389;-90
2023/08/28 05:20:28;;;;;;;7.22;5.38;;;;;;;;;;8337139;28;20037;-90
2023/08/28 05:24:31;;;;;;;13.25;6.60;;;;;;;;;;8348667;28;20546;-90
2023/08/28 05:28:37;;;;;;;11.73;6.60;;;;;;;;;;8339639;28;20037;-91
2023/08/28 05:32:41;;;;;;;9.07;5.45;;;;;;;;;;8348435;28;20093;-92
2023/08/28 05:36:44;;;;;;;8.38;5.07;;;;;;;;;;8350650;28;20079;-90
2023/08/28 05:40:47;;;;;;;10.50;5.22;;;;;;;;;;8338405;28;20056;-89
2023/08/28 05:44:50;;;;;;;8.05;4.50;;;;;;;;;;8327378;28;20049;-92
2023/08/28 05:48:55;;;;;;;8.32;5.25;;;;;;;;;;8330795;28;20057;-93
2023/08/28 05:52:58;;;;;;;9.23;4.60;;;;;;;;;;8331396;28;20049;-93
2023/08/28 05:57:02;;;;;;;7.82;3.92;;;;;;;;;;8351096;28;20044;-89
2023/08/28 06:01:05;;;;;;;6.22;4.30;;;;;;;;;;8336046;28;20052;-90
2023/08/28 06:05:10;;;;;;;8.38;5.10;;;;;;;;;;8359780;28;20041;-88
2023/08/28 06:09:13;;;;;;;5.80;4.25;;;;;;;;;;8363076;28;20049;-91
2023/08/28 06:13:15;;;;;;;11.23;6.78;;;;;;;;;;8351218;28;20094;-91
2023/08/28 06:17:18;;;;;;;12.63;5.78;;;;;;;;;;8335197;28;20045;-89
2023/08/28 06:21:23;;;;;;;11.25;6.28;;;;;;;;;;8335435;28;20049;-89
2023/08/28 06:25:26;;;;;;;9.98;5.70;;;;;;;;;;8344970;28;20044;-90
2023/08/28 06:29:29;;;;;;;6.20;4.82;;;;;;;;;;8351962;28;20049;-86
2023/08/28 06:33:32;;;;;;;8.52;5.13;;;;;;;;;;8344537;28;20164;-86
2023/08/28 06:37:36;;;;;;;6.65;4.97;;;;;;;;;;8345547;28;20492;-87
2023/08/28 06:41:40;;;;;;;9.00;5.30;;;;;;;;;;8350259;27;20037;-91
2023/08/28 06:45:44;;;;;;;8.38;5.25;;;;;;;;;;8347347;28;20719;-89
2023/08/28 06:49:46;;;;;;;7.18;5.00;;;;;;;;;;8322496;28;20088;-85
2023/08/28 06:53:52;;;;;;;7.75;4.60;;;;;;;;;;8345835;28;20051;-90
2023/08/28 06:57:55;;;;;;;5.95;4.15;;;;;;;;;;8346525;28;20477;-91
2023/08/28 07:01:58;;;;;;;6.97;4.38;;;;;;;;;;8345077;28;20062;-89
2023/08/28 07:06:02;;;;;;;9.63;4.00;;;;;;;;;;8345990;28;20083;-90
2023/08/28 07:10:08;;;;;;;5.53;3.83;;;;;;;;;;8331874;28;20056;-91
2023/08/28 07:14:12;;;;;;;6.43;3.85;;;;;;;;;;8451213;22;20109;-91
2023/08/28 07:18:16;;;;;;;5.53;3.70;;;;;;;;;;8362843;28;20845;-92
2023/08/28 07:22:19;;;;;;;6.90;4.07;;;;;;;;;;8363850;28;20045;-90
2023/08/28 07:26:23;;;;;;;8.73;3.28;;;;;;;;;;8365149;28;20049;-90
2023/08/28 07:30:26;;;;;;;6.03;3.83;;;;;;;;;;8360853;28;20120;-91
2023/08/28 07:34:32;;;;;;;7.05;3.60;;;;;;;;;;8357763;28;20041;-94
2023/08/28 07:38:35;;;;;;;5.47;3.70;;;;;;;;;;8347105;28;20047;-89
2023/08/28 07:42:39;;;;;;;6.20;3.47;;;;;;;;;;8362782;28;20045;-88
2023/08/28 07:46:42;;;;;;;6.15;3.35;;;;;;;;;;8363180;28;20052;-90
2023/08/28 07:50:46;;;;;;;7.05;3.60;;;;;;;;;;8368961;28;20041;-90
2023/08/28 07:54:49;;;;;;;4.60;3.03;;;;;;;;;;8361939;28;20076;-89
2023/08/28 07:58:53;;;;;;;11.52;7.65;;;;;;;;;;8362878;28;20087;-89
2023/08/28 08:02:56;;;;;;;25.23;17.83;;;;;;;;;;8358281;28;20435;-91
2023/08/28 08:06:59;;;;;;;11.95;7.95;;;;;;;;;;8350428;28;20041;-86
2023/08/28 08:11:02;;;;;;;5.53;2.90;;;;;;;;;;8360682;28;20041;-89
2023/08/28 08:15:09;;;;;;;6.10;2.88;;;;;;;;;;8350958;28;20160;-90
2023/08/28 08:19:12;;;;;;;4.32;2.60;;;;;;;;;;8351700;28;20059;-88
2023/08/28 08:23:15;;;;;;;3.65;2.65;;;;;;;;;;8329336;28;20130;-88
2023/08/28 08:27:18;;;;;;;4.72;2.55;;;;;;;;;;8450694;22;20114;-89
2023/08/28 08:36:20;;;;;;;6.25;2.80;;;;;;;;;;8407151;28;20056;-89
2023/08/28 08:40:26;;;;;;;3.45;2.70;;;;;;;;;;8424522;28;20048;-88
2023/08/28 08:44:30;;;;;;;6.97;3.00;;;;;;;;;;8414984;28;20097;-90
2023/08/28 08:48:36;;;;;;;6.75;3.40;;;;;;;;;;8413638;28;20508;-91
2023/08/28 08:52:43;;;;;;;5.03;3.70;;;;;;;;;;8423268;28;20598;-89
2023/08/28 08:56:51;;;;;;;122.28;52.10;;;;;;;;;;8412482;28;20151;-90
2023/08/28 09:00:55;;;;;;;17.95;9.32;;;;;;;;;;8420800;28;20434;-89
2023/08/28 09:05:00;;;;;;;8.40;4.30;;;;;;;;;;8424621;28;20055;-88
2023/08/28 09:09:11;;;;;;;5.97;4.70;;;;;;;;;;8423517;28;20090;-89
2023/08/28 09:13:14;;;;;;;;;;;;;;;;;;8422894;28;20082;-90
2023/08/28 09:17:18;;;;;;;26.63;14.77;;;;;;;;;;8423050;28;19964;-90
2023/08/28 09:21:27;;;;;;;6.32;4.10;;;;;;;;;;8420141;28;20079;-92
2023/08/28 09:25:35;;;;;;;6.95;3.97;;;;;;;;;;8422461;28;20058;-93
2023/08/28 09:29:44;;;;;;;40.72;26.00;;;;;;;;;;8422491;28;20048;-89
2023/08/28 09:33:50;;;;;;;15.20;9.10;;;;;;;;;;8416037;28;20079;-90
2023/08/28 09:37:57;;;;;;;8.30;4.70;;;;;;;;;;8431100;28;20068;-88
2023/08/28 09:42:01;;;;;;;7.30;3.47;;;;;;;;;;8424932;28;20067;-91
2023/08/28 09:46:05;;;;;;;7.28;3.42;;;;;;;;;;8427356;28;21638;-91
2023/08/28 09:50:09;;;;;;;6.13;4.35;;;;;;;;;;8420224;28;20124;-91
2023/08/28 09:54:14;;;;;;;7.82;4.70;;;;;;;;;;8420922;28;20041;-91
2023/08/28 09:58:19;;;;;;;7.07;4.22;;;;;;;;;;8418370;28;20097;-89
2023/08/28 10:02:23;;;;;;;5.93;4.43;;;;;;;;;;8427732;28;20676;-92
2023/08/28 10:06:27;;;;;;;5.15;4.03;;;;;;;;;;8433942;28;20469;-91
2023/08/28 10:10:31;;;;;;;6.18;3.78;;;;;;;;;;8442754;28;20044;-90
2023/08/28 10:14:37;;;;;;;5.32;4.05;;;;;;;;;;8442522;28;20048;-90
2023/08/28 10:18:47;;;;;;;6.80;4.15;;;;;;;;;;8424879;28;20052;-90
2023/08/28 10:22:51;;;;;;;5.57;4.00;;;;;;;;;;8411150;28;20048;-90
2023/08/28 10:26:55;;;;;;;7.72;4.28;;;;;;;;;;8429483;28;20488;-91
2023/08/28 10:31:01;;;;;;;9.35;4.90;;;;;;;;;;8425243;28;20056;-90
2023/08/28 10:35:05;;;;;;;6.90;4.35;;;;;;;;;;8423960;28;20118;-87
2023/08/28 10:39:11;;;;;;;6.65;4.45;;;;;;;;;;8419482;28;20082;-87
2023/08/28 10:43:15;;;;;;;6.28;4.07;;;;;;;;;;8409062;28;20044;-88
2023/08/28 10:47:20;;;;;;;6.30;4.13;;;;;;;;;;8422403;28;20047;-88
2023/08/28 10:51:31;;;;;;;8.95;4.30;;;;;;;;;;8417335;28;20067;-87
2023/08/28 10:55:35;;;;;;;7.80;4.28;;;;;;;;;;8420905;28;20060;-86
2023/08/28 10:59:45;;;;;;;6.07;4.05;;;;;;;;;;8413772;28;20052;-87
2023/08/28 11:03:58;;;;;;;6.07;4.63;;;;;;;;;;8420598;28;20092;-87
2023/08/28 11:08:04;;;;;;;5.63;4.43;;;;;;;;;;8420397;28;20045;-88
2023/08/28 11:12:27;;;;;;;6.95;4.00;;;;;;;;;;8407289;28;20051;-87
2023/08/28 11:16:30;;;;;;;5.95;3.83;;;;;;;;;;8421471;28;20048;-90
2023/08/28 11:20:37;;;;;;;4.80;3.78;;;;;;;;;;8407462;28;20049;-88
2023/08/28 11:24:41;;;;;;;6.13;4.32;;;;;;;;;;8415185;28;20040;-90
2023/08/28 11:28:48;;;;;;;6.53;4.65;;;;;;;;;;8422276;28;20087;-91
2023/08/28 11:32:55;;;;;;;6.75;4.13;;;;;;;;;;8410120;28;20048;-90
2023/08/28 11:37:02;;;;;;;8.63;4.30;;;;;;;;;;8418667;28;20051;-92
2023/08/28 11:41:07;;;;;;;5.93;4.18;;;;;;;;;;8417404;28;20044;-91
2023/08/28 11:45:11;;;;;;;6.63;4.40;;;;;;;;;;8415132;28;20063;-92
2023/08/28 11:49:14;;;;;;;7.00;4.45;;;;;;;;;;8417531;28;20063;-93
2023/08/28 11:53:31;;;;;;;7.05;4.35;;;;;;;;;;8417608;28;20051;-93
2023/08/28 11:57:35;;;;;;;7.38;4.93;;;;;;;;;;8424607;28;20040;-92
2023/08/28 12:01:38;;;;;;;5.00;3.88;;;;;;;;;;8427542;28;20036;-90
2023/08/28 12:05:42;;;;;;;8.07;4.95;;;;;;;;;;8427607;28;20046;-92
2023/08/28 12:09:48;;;;;;;6.68;3.95;;;;;;;;;;8412109;28;20079;-91
2023/08/28 12:13:55;;;;;;;5.05;3.78;;;;;;;;;;8420525;28;20129;-89
2023/08/28 12:18:01;;;;;;;5.35;4.00;;;;;;;;;;8412667;28;20057;-90
2023/08/28 12:22:06;;;;;;;5.60;4.20;;;;;;;;;;8415202;28;20044;-91
2023/08/28 12:26:10;;;;;;;7.28;3.67;;;;;;;;;;8427161;28;20153;-91
2023/08/28 12:30:22;;;;;;;6.72;3.80;;;;;;;;;;8401421;28;20479;-90
2023/08/28 12:34:30;;;;;;;11.07;4.25;;;;;;;;;;8428238;28;20135;-92
2023/08/28 12:38:46;;;;;;;4.97;3.85;;;;;;;;;;8421611;28;20071;-91
2023/08/28 12:42:58;;;;;;;5.85;4.40;;;;;;;;;;8416834;28;20036;-91
2023/08/28 12:47:02;;;;;;;8.15;4.50;;;;;;;;;;8419102;28;20105;-90
2023/08/28 12:51:06;;;;;;;5.15;4.10;;;;;;;;;;8416517;28;20590;-91
2023/08/28 12:55:09;;;;;;;7.82;4.65;;;;;;;;;;8418253;28;20046;-91
2023/08/28 12:59:15;;;;;;;5.35;3.95;;;;;;;;;;8411614;28;20040;-88
2023/08/28 13:03:18;;;;;;;7.53;5.00;;;;;;;;;;8410776;28;20068;-93
2023/08/28 13:07:21;;;;;;;5.75;3.63;;;;;;;;;;8421102;28;20044;-90
2023/08/28 13:11:28;;;;;;;5.75;3.63;;;;;;;;;;8422229;28;20114;-94
2023/08/28 13:15:32;;;;;;;7.88;3.60;;;;;;;;;;8407946;28;20093;-92
2023/08/28 13:19:35;;;;;;;6.32;3.38;;;;;;;;;;8427827;28;20454;-91
2023/08/28 13:23:38;;;;;;;15.18;2.90;;;;;;;;;;8423589;28;20619;-92
2023/08/28 13:27:43;;;;;;;4.65;2.72;;;;;;;;;;8412413;28;20060;-91
2023/08/28 13:31:47;;;;;;;5.55;3.30;;;;;;;;;;8413691;28;20044;-90
2023/08/28 13:35:50;;;;;;;4.55;2.58;;;;;;;;;;8429789;28;20497;-91
2023/08/28 13:39:53;;;;;;;6.32;3.00;;;;;;;;;;8430402;28;20044;-91
2023/08/28 13:43:56;;;;;;;4.53;2.53;;;;;;;;;;8436371;28;20109;-92
2023/08/28 13:48:04;;;;;;;6.53;2.80;;;;;;;;;;8429026;28;20376;-88
2023/08/28 13:52:07;;;;;;;5.03;2.58;;;;;;;;;;8423759;28;20059;-90
2023/08/28 13:56:10;;;;;;;3.90;2.20;;;;;;;;;;8414204;28;20519;-88
2023/08/28 14:00:14;;;;;;;6.97;2.13;;;;;;;;;;8419642;28;20044;-88
2023/08/28 14:04:31;;;;;;;3.35;2.10;;;;;;;;;;8411989;28;20036;-89
2023/08/28 14:08:49;;;;;;;3.92;2.30;;;;;;;;;;8406871;28;20151;-87
2023/08/28 14:12:53;;;;;;;3.63;2.30;;;;;;;;;;8412386;28;20063;-89
2023/08/28 14:16:56;;;;;;;15.07;2.60;;;;;;;;;;8415287;28;20094;-89
2023/08/28 14:21:02;;;;;;;3.20;2.15;;;;;;;;;;8417853;28;20052;-89
2023/08/28 14:25:07;;;;;;;4.15;2.13;;;;;;;;;;8425127;28;20065;-89
2023/08/28 14:29:10;;;;;;;4.90;2.25;;;;;;;;;;8414442;28;20123;-88
2023/08/28 14:33:13;;;;;;;3.33;2.05;;;;;;;;;;8412427;28;20047;-87
2023/08/28 14:37:17;;;;;;;3.22;2.35;;;;;;;;;;8408671;28;20135;-88
2023/08/28 14:41:20;;;;;;;3.97;2.80;;;;;;;;;;8419768;28;20097;-89
2023/08/28 14:45:23;;;;;;;4.68;2.65;;;;;;;;;;8410408;28;20045;-88
2023/08/28 14:49:26;;;;;;;4.28;2.75;;;;;;;;;;8420072;28;20093;-89
2023/08/28 14:53:31;;;;;;;3.85;2.60;;;;;;;;;;8418656;28;20048;-89
2023/08/28 14:57:35;;;;;;;4.72;2.92;;;;;;;;;;8420881;28;20052;-89
2023/08/28 15:01:38;;;;;;;4.97;2.78;;;;;;;;;;8414012;28;20044;-89
2023/08/28 15:05:44;;;;;;;3.97;2.90;;;;;;;;;;8408153;28;20043;-88
2023/08/28 15:09:48;;;;;;;4.63;2.80;;;;;;;;;;8407509;28;20114;-89
2023/08/28 15:13:52;;;;;;;4.32;2.80;;;;;;;;;;8423803;28;20121;-89
2023/08/28 15:17:56;;;;;;;6.60;3.00;;;;;;;;;;8405023;28;20044;-88
2023/08/28 15:21:58;;;;;;;7.03;2.90;;;;;;;;;;8409713;28;20040;-89
2023/08/28 15:26:03;;;;;;;4.70;2.78;;;;;;;;;;8408667;28;20483;-89
2023/08/28 15:30:08;;;;;;;5.65;2.70;;;;;;;;;;8410556;28;20048;-89
2023/08/28 15:34:12;;;;;;;3.88;2.65;;;;;;;;;;8403690;28;20045;-88
2023/08/28 15:38:15;;;;;;;4.68;2.97;;;;;;;;;;8428357;28;20066;-89
2023/08/28 15:42:21;;;;;;;4.18;2.72;;;;;;;;;;8409367;28;20036;-89
2023/08/28 15:46:24;;;;;;;4.38;2.95;;;;;;;;;;8413294;28;20131;-88
2023/08/28 15:50:27;;;;;;;5.18;3.15;;;;;;;;;;8423335;28;20491;-88
2023/08/28 15:54:31;;;;;;;4.13;2.80;;;;;;;;;;8421485;28;20506;-88
2023/08/28 15:58:37;;;;;;;4.63;2.75;;;;;;;;;;8419736;28;20067;-88
2023/08/28 16:02:41;;;;;;;5.47;3.13;;;;;;;;;;8412903;28;20104;-87
2023/08/28 16:06:44;;;;;;;3.97;2.80;;;;;;;;;;8426914;28;20109;-88
2023/08/28 16:10:48;;;;;;;4.43;3.05;;;;;;;;;;8428316;28;20468;-89
2023/08/28 16:14:55;;;;;;;5.28;3.70;;;;;;;;;;8404001;28;20044;-89
2023/08/28 16:19:02;;;;;;;5.93;3.03;;;;;;;;;;8416711;28;20046;-89
2023/08/28 16:23:06;;;;;;;5.93;2.78;;;;;;;;;;8411650;28;20079;-90
2023/08/28 16:27:10;;;;;;;4.90;2.90;;;;;;;;;;8411441;28;20151;-90
2023/08/28 16:31:18;;;;;;;4.55;2.78;;;;;;;;;;8407232;28;20120;-89
2023/08/28 16:35:23;;;;;;;3.90;2.60;;;;;;;;;;8415455;28;20051;-90
2023/08/28 16:39:28;;;;;;;4.57;2.75;;;;;;;;;;8425569;28;20037;-89
2023/08/28 16:43:33;;;;;;;3.88;2.50;;;;;;;;;;8378457;28;20148;-89
2023/08/28 16:47:39;;;;;;;2.90;2.40;;;;;;;;;;8409550;28;20036;-87
2023/08/28 16:51:44;;;;;;;4.40;2.83;;;;;;;;;;8416508;28;20438;-87
2023/08/28 16:55:48;;;;;;;3.72;2.50;;;;;;;;;;8408525;28;20128;-87
2023/08/28 16:59:52;;;;;;;4.57;3.08;;;;;;;;;;8418233;28;20036;-87
2023/08/28 17:03:57;;;;;;;4.45;3.03;;;;;;;;;;8417419;28;20124;-87
2023/08/28 17:08:01;;;;;;;5.50;3.03;;;;;;;;;;8410102;28;20059;-87
2023/08/28 17:12:06;;;;;;;4.78;3.10;;;;;;;;;;8420615;28;20453;-87
2023/08/28 17:16:10;;;;;;;4.07;2.78;;;;;;;;;;8430644;28;20494;-86
2023/08/28 17:20:15;;;;;;;5.40;3.05;;;;;;;;;;8425164;28;20072;-86
2023/08/28 17:24:21;;;;;;;5.07;3.20;;;;;;;;;;8414647;28;20514;-87
2023/08/28 17:28:26;;;;;;;7.60;3.33;;;;;;;;;;8417259;28;20136;-87
2023/08/28 17:32:31;;;;;;;7.50;3.63;;;;;;;;;;8434491;28;20050;-85
2023/08/28 17:36:37;;;;;;;6.38;3.50;;;;;;;;;;8428728;28;20051;-87
2023/08/28 17:40:43;;;;;;;7.43;3.60;;;;;;;;;;8416505;28;20044;-86
2023/08/28 17:44:47;;;;;;;6.80;3.90;;;;;;;;;;8425469;28;20082;-86
2023/08/28 17:48:52;;;;;;;5.50;3.63;;;;;;;;;;8416116;28;20544;-86
2023/08/28 17:52:57;;;;;;;5.85;3.50;;;;;;;;;;8411713;28;20041;-87
2023/08/28 17:57:01;;;;;;;5.82;3.72;;;;;;;;;;8407300;28;20058;-87
2023/08/28 18:01:05;;;;;;;28.30;8.70;;;;;;;;;;8417653;28;20043;-86
2023/08/28 18:05:11;;;;;;;7.45;4.55;;;;;;;;;;8419441;28;20055;-86
2023/08/28 18:09:17;;;;;;;8.90;4.28;;;;;;;;;;8403887;28;20449;-87
2023/08/28 18:13:21;;;;;;;5.10;3.58;;;;;;;;;;8414390;28;20551;-90
2023/08/28 18:17:25;;;;;;;6.72;4.00;;;;;;;;;;8413894;28;20044;-92
2023/08/28 18:21:31;;;;;;;6.30;3.55;;;;;;;;;;8415291;28;20044;-85
2023/08/28 18:25:37;;;;;;;6.97;4.00;;;;;;;;;;8422932;28;20071;-87
2023/08/28 18:29:41;;;;;;;7.28;4.53;;;;;;;;;;8414897;28;20209;-88
2023/08/28 18:33:45;;;;;;;6.63;3.90;;;;;;;;;;8413111;28;20119;-87
2023/08/28 18:37:49;;;;;;;6.43;3.65;;;;;;;;;;8429623;28;20125;-87
2023/08/28 18:41:55;;;;;;;7.13;4.13;;;;;;;;;;8410073;28;20048;-86
2023/08/28 18:45:59;;;;;;;7.00;4.03;;;;;;;;;;8408028;28;20044;-88
2023/08/28 18:50:08;;;;;;;15.63;8.27;;;;;;;;;;8408086;28;20074;-88
2023/08/28 18:54:13;;;;;;;6.75;4.38;;;;;;;;;;8411626;28;20087;-87
2023/08/28 18:58:19;;;;;;;7.13;4.70;;;;;;;;;;8363128;28;20050;-88
2023/08/28 19:02:23;;;;;;;7.65;4.75;;;;;;;;;;8415933;28;20097;-87
2023/08/28 19:06:32;;;;;;;6.50;4.20;;;;;;;;;;8405567;28;20565;-87
2023/08/28 19:10:39;;;;;;;7.00;4.38;;;;;;;;;;8397704;28;20503;-86
2023/08/28 19:14:48;;;;;;;11.27;4.45;;;;;;;;;;8423084;28;20046;-87
2023/08/28 19:18:53;;;;;;;9.63;4.20;;;;;;;;;;8407765;28;20056;-88
2023/08/28 19:22:56;;;;;;;8.13;4.53;;;;;;;;;;8411759;28;20476;-87
2023/08/28 19:27:02;;;;;;;5.50;4.15;;;;;;;;;;8417159;28;20052;-88
2023/08/28 19:31:14;;;;;;;9.50;5.97;;;;;;;;;;8419554;28;20040;-87
2023/08/28 19:35:19;;;;;;;6.93;4.57;;;;;;;;;;8407215;28;20475;-87
2023/08/28 19:39:38;;;;;;;10.50;4.68;;;;;;;;;;8405050;28;20136;-87
2023/08/28 19:43:42;;;;;;;7.38;5.10;;;;;;;;;;8409441;28;20055;-87
2023/08/28 19:47:49;;;;;;;8.70;5.55;;;;;;;;;;8414324;28;20055;-88
2023/08/28 19:51:54;;;;;;;7.95;5.25;;;;;;;;;;8400990;28;20447;-88
2023/08/28 19:56:04;;;;;;;8.52;5.40;;;;;;;;;;8410962;28;20570;-90
2023/08/28 20:00:10;;;;;;;8.02;5.00;;;;;;;;;;8406384;28;20480;-91
2023/08/28 20:04:20;;;;;;;7.68;5.28;;;;;;;;;;8405481;28;20056;-91
2023/08/28 20:08:26;;;;;;;7.43;5.10;;;;;;;;;;8429249;28;20495;-89
2023/08/28 20:12:33;;;;;;;7.63;4.88;;;;;;;;;;8414664;28;20052;-90
2023/08/28 20:16:37;;;;;;;7.15;5.25;;;;;;;;;;8426529;28;20131;-90
2023/08/28 20:20:43;;;;;;;8.25;5.07;;;;;;;;;;8400437;28;20127;-91
2023/08/28 20:24:48;;;;;;;9.35;5.93;;;;;;;;;;8441567;28;20059;-90
2023/08/28 20:28:53;;;;;;;8.25;5.57;;;;;;;;;;8453122;28;20208;-89
2023/08/28 20:32:57;;;;;;;8.38;5.60;;;;;;;;;;8468220;28;20020;-88
2023/08/28 20:37:03;;;;;;;9.65;5.82;;;;;;;;;;8440504;28;20120;-90
2023/08/28 20:41:08;;;;;;;7.55;4.97;;;;;;;;;;8424237;28;20059;-90
2023/08/28 20:45:14;;;;;;;7.60;4.82;;;;;;;;;;8443877;28;20063;-90
2023/08/28 20:49:19;;;;;;;8.52;5.22;;;;;;;;;;8439031;28;20052;-91
2023/08/28 20:53:25;;;;;;;6.63;5.10;;;;;;;;;;8435358;28;20052;-90
2023/08/28 20:57:29;;;;;;;10.20;5.47;;;;;;;;;;8420451;28;20047;-90
2023/08/28 21:01:32;;;;;;;7.63;5.30;;;;;;;;;;8432395;28;20080;-88
2023/08/28 21:05:35;;;;;;;11.13;5.45;;;;;;;;;;8408943;28;20083;-89
2023/08/28 21:09:41;;;;;;;7.68;5.90;;;;;;;;;;8418108;28;20052;-89
2023/08/28 21:13:44;;;;;;;9.00;5.28;;;;;;;;;;8401105;28;20113;-90
2023/08/28 21:17:47;;;;;;;8.75;5.60;;;;;;;;;;8408756;28;20559;-89
2023/08/28 21:21:51;;;;;;;9.48;5.43;;;;;;;;;;8415154;28;20059;-90
2023/08/28 21:26:03;;;;;;;15.27;6.38;;;;;;;;;;8431358;28;20140;-87
2023/08/28 21:30:07;;;;;;;10.02;6.28;;;;;;;;;;8412698;28;20059;-89
2023/08/28 21:34:11;;;;;;;7.57;5.53;;;;;;;;;;8400176;28;20052;-90
2023/08/28 21:38:14;;;;;;;10.77;6.20;;;;;;;;;;8413276;28;20076;-89
2023/08/28 21:42:19;;;;;;;9.38;6.57;;;;;;;;;;8402592;28;20055;-88
2023/08/28 21:46:23;;;;;;;9.25;5.97;;;;;;;;;;8420037;28;20078;-90
2023/08/28 21:50:26;;;;;;;10.40;6.47;;;;;;;;;;8406082;28;20068;-90
2023/08/28 21:54:29;;;;;;;7.43;5.07;;;;;;;;;;8403700;28;20044;-87
2023/08/28 21:58:35;;;;;;;10.70;6.72;;;;;;;;;;8400793;28;20488;-88
2023/08/28 22:02:38;;;;;;;12.02;7.05;;;;;;;;;;8427494;28;20040;-90
2023/08/28 22:06:42;;;;;;;8.65;5.95;;;;;;;;;;8415952;28;20053;-90
2023/08/28 22:10:45;;;;;;;10.02;6.38;;;;;;;;;;8401950;28;20048;-89
2023/08/28 22:14:50;;;;;;;10.93;6.65;;;;;;;;;;8424411;28;20062;-88
2023/08/28 22:18:53;;;;;;;10.85;6.90;;;;;;;;;;8407925;28;20060;-89
2023/08/28 22:22:57;;;;;;;9.30;6.60;;;;;;;;;;8424473;28;20135;-89
2023/08/28 22:27:01;;;;;;;9.80;6.00;;;;;;;;;;8407164;28;20492;-89
2023/08/28 22:31:09;;;;;;;8.38;5.70;;;;;;;;;;8403336;28;20052;-90
2023/08/28 22:35:12;;;;;;;8.40;6.15;;;;;;;;;;8418171;28;20044;-90
2023/08/28 22:39:15;;;;;;;8.23;5.82;;;;;;;;;;8419817;28;20044;-88
2023/08/28 22:43:19;;;;;;;7.43;5.70;;;;;;;;;;8407606;28;20078;-88
2023/08/28 22:47:24;;;;;;;10.82;5.93;;;;;;;;;;8410625;28;20044;-89
2023/08/28 22:51:28;;;;;;;7.47;5.20;;;;;;;;;;8430073;28;20075;-91
2023/08/28 22:55:31;;;;;;;7.80;5.45;;;;;;;;;;8538554;22;20110;-88
2023/08/28 22:59:35;;;;;;;9.60;5.13;;;;;;;;;;8390364;28;20131;-91
2023/08/28 23:03:40;;;;;;;7.28;5.20;;;;;;;;;;8515273;23;20048;-88
2023/08/28 23:07:43;;;;;;;8.23;4.95;;;;;;;;;;8451266;28;20139;-88
2023/08/28 23:11:46;;;;;;;9.15;5.20;;;;;;;;;;8460477;28;20046;-91
2023/08/28 23:15:53;;;;;;;7.03;4.57;;;;;;;;;;8442938;28;20396;-91
2023/08/28 23:19:58;;;;;;;7.45;4.07;;;;;;;;;;8459888;28;20047;-90
2023/08/28 23:24:01;;;;;;;5.85;4.60;;;;;;;;;;8452766;28;20069;-90
2023/08/28 23:28:08;;;;;;;7.20;4.53;;;;;;;;;;8452549;28;20081;-90
2023/08/28 23:32:11;;;;;;;6.20;4.57;;;;;;;;;;8460243;27;20384;-90
2023/08/28 23:36:16;;;;;;;7.47;5.10;;;;;;;;;;8444038;28;20052;-88
2023/08/28 23:40:19;;;;;;;8.43;4.70;;;;;;;;;;8451624;28;20181;-91
2023/08/28 23:44:23;;;;;;;10.55;5.22;;;;;;;;;;8456387;28;20051;-89
2023/08/28 23:48:26;;;;;;;7.20;4.53;;;;;;;;;;8456891;28;20052;-89
2023/08/28 23:52:34;;;;;;;7.30;4.50;;;;;;;;;;8472115;28;20047;-88
2023/08/28 23:56:37;;;;;;;6.35;4.43;;;;;;;;;;8458875;28;20404;-89
